Suederoog — ZDHC8 — position and weather

sailwx.info

Track history (hours):
 
Tides and Currents Weather Stations Pressure Air Temp Water Temp Dewpoint Dewpoint Depression Visibility Wind Speed Wind Dir Waves Ship Positions

Suederoog

Last reported at 2014-Sep-02 22:28 UTC. Time now 2014-Sep-03 07:27 UTC.
Position N 59°53' E 030°12'.

Length 161 m; draft 9.8 m.

Type: Ship (hazmat cat A). MMSI: 236300000.

Date/timePositionNaut miles runAvg speedWind from/ knotsBaromVisibWave heightAir tempDewpointWater temp
2014-Sep-02 22:28N 59°53' E 030°12'0 0.0
2014-Sep-02 20:33N 59°53' E 030°12'0 0.0
2014-Sep-02 19:28N 59°53' E 030°12'0 0.0
2014-Sep-02 18:28N 59°53' E 030°12'0 0.0
2014-Sep-02 17:28N 59°53' E 030°12'6 1.5
2014-Sep-02 13:08N 59°55' E 030°00'84 9.7
2014-Sep-02 04:31N 60°01' E 027°13'1010.4
2014-Sep-02 03:33N 59°59' E 026°54'1110.6
2014-Sep-02 02:33N 59°58' E 026°33'5810.9
2014-Sep-01 21:13N 59°45' E 024°41'711.1
2014-Sep-01 20:33N 59°43' E 024°26'1211.2
2014-Sep-01 19:30N 59°40' E 024°04'1010.8
2014-Sep-01 18:33N 59°37' E 023°45'1111.0
2014-Sep-01 17:33N 59°33' E 023°24'20213.5
2014-Sep-01 02:31N 57°08' E 018°56'1718.2
2014-Sep-01 01:34N 56°54' E 018°37'8118.1
2014-Aug-31 21:04N 56°02' E 016°44'918.0
2014-Aug-31 20:34N 55°57' E 016°29'5317.7
2014-Aug-31 17:33N 55°32' E 015°06'1717.5
2014-Aug-31 16:33N 55°24' E 014°38'1818.2
2014-Aug-31 15:34N 55°09' E 014°21'1817.6
2014-Aug-31 14:33N 54°59' E 013°56'3718.2
2014-Aug-31 12:33N 54°48' E 012°55'2117.4
2014-Aug-31 11:20N 54°38' E 012°23'1316.9
2014-Aug-31 10:33N 54°27' E 012°12'9110.1
2014-Aug-31 01:33N 54°15' E 009°37'7 6.7
2014-Aug-31 00:29N 54°10' E 009°27'5 5.2
2014-Aug-30 23:31N 54°08' E 009°20'6 6.2
2014-Aug-30 22:33N 54°02' E 009°18'6 6.0
2014-Aug-30 21:34N 53°56' E 009°13'0 0.0
2014-Aug-30 20:34N 53°57' E 009°13'3 3.3
2014-Aug-30 19:34N 53°54' E 009°10'1 1.3
2014-Aug-30 18:34N 53°53' E 009°11'9 8.9
2014-Aug-30 17:33N 53°48' E 009°23'1313.5
2014-Aug-30 16:33N 53°36' E 009°35'1110.7
2014-Aug-30 15:33N 53°33' E 009°52'3 3.1
2014-Aug-30 14:33N 53°32' E 009°57'0 0.0
2014-Aug-30 13:33N 53°32' E 009°57'0 0.0
2014-Aug-30 12:31N 53°32' E 009°57'0 0.0
2014-Aug-30 11:28N 53°32' E 009°57'0 0.0
2014-Aug-30 10:32N 53°32' E 009°57'0 0.0
2014-Aug-30 09:31N 53°32' E 009°57'0 0.0
2014-Aug-30 08:22N 53°32' E 009°57'0 0.0
2014-Aug-30 07:33N 53°32' E 009°57'0 0.0
2014-Aug-30 06:32N 53°32' E 009°57'0 0.0
2014-Aug-30 05:29N 53°32' E 009°57'0 0.0
2014-Aug-30 04:31N 53°32' E 009°57'0 0.0
2014-Aug-30 03:31N 53°32' E 009°57'0 0.0
2014-Aug-30 02:31N 53°32' E 009°57'0 0.0
2014-Aug-30 01:31N 53°32' E 009°57'0 0.0
2014-Aug-30 00:31N 53°32' E 009°57'0 0.0
2014-Aug-29 23:31N 53°32' E 009°57'0 0.0
2014-Aug-29 22:33N 53°32' E 009°57'0 0.0
2014-Aug-29 21:31N 53°32' E 009°57'0 0.0
2014-Aug-29 20:33N 53°32' E 009°57'0 0.0
2014-Aug-29 19:32N 53°32' E 009°57'0 0.0
2014-Aug-29 18:33N 53°32' E 009°57'0 0.0
2014-Aug-29 17:33N 53°32' E 009°57'0 0.0
2014-Aug-29 16:28N 53°32' E 009°57'0 0.0
2014-Aug-29 15:31N 53°32' E 009°57'0 0.0
2014-Aug-29 14:33N 53°32' E 009°57'0 0.2
2014-Aug-29 13:34N 53°32' E 009°57'1 1.2
2014-Aug-29 12:29N 53°32' E 009°55'0 0.0
2014-Aug-29 11:32N 53°32' E 009°55'0 0.0
2014-Aug-29 10:32N 53°32' E 009°55'0 0.0
2014-Aug-29 09:33N 53°32' E 009°55'0 0.0
2014-Aug-29 08:33N 53°32' E 009°55'0 0.0
2014-Aug-29 07:33N 53°32' E 009°55'0 0.0
2014-Aug-29 06:30N 53°32' E 009°55'0 0.0
2014-Aug-29 05:33N 53°32' E 009°55'0 0.0
2014-Aug-29 04:30N 53°32' E 009°55'0 0.0
2014-Aug-29 03:32N 53°32' E 009°55'0 0.0
2014-Aug-29 02:33N 53°32' E 009°55'0 0.0
2014-Aug-29 01:32N 53°32' E 009°55'0 0.0
2014-Aug-29 00:31N 53°32' E 009°55'0 0.0
2014-Aug-28 23:33N 53°32' E 009°55'0 0.0
2014-Aug-28 22:33N 53°32' E 009°55'0 0.0
2014-Aug-28 21:33N 53°32' E 009°55'0 0.0
2014-Aug-28 20:33N 53°32' E 009°55'0 0.0
2014-Aug-28 19:33N 53°32' E 009°55'0 0.0
2014-Aug-28 18:33N 53°32' E 009°55'0 0.0
2014-Aug-28 17:29N 53°32' E 009°55'0 0.0
2014-Aug-28 16:29N 53°32' E 009°55'1 0.8
2014-Aug-28 15:33N 53°32' E 009°54'8 7.9
2014-Aug-28 14:34N 53°34' E 009°41'1515.0
2014-Aug-28 13:34N 53°45' E 009°24'1312.6
2014-Aug-28 12:33N 53°54' E 009°09'1 0.7
2014-Aug-28 11:33N 53°54' E 009°10'1 0.6
2014-Aug-28 10:33N 53°55' E 009°10'0 0.0
2014-Aug-28 09:33N 53°55' E 009°10'0 0.0
2014-Aug-28 08:33N 53°55' E 009°10'0 0.0
2014-Aug-28 07:34N 53°55' E 009°10'0 0.1
2014-Aug-28 06:33N 53°55' E 009°10'5 5.5
2014-Aug-28 05:33N 53°59' E 009°16'7 6.8
2014-Aug-28 04:33N 54°05' E 009°19'5 4.9
2014-Aug-28 03:33N 54°10' E 009°24'6 5.8
2014-Aug-28 02:33N 54°12' E 009°33'4 3.6
2014-Aug-28 01:31N 54°15' E 009°37'4 4.4
2014-Aug-28 00:33N 54°18' E 009°42'61 6.7
2014-Aug-27 15:23N 54°32' E 011°24'1011.1
2014-Aug-27 14:27N 54°28' E 011°40'1011.2
2014-Aug-27 13:33N 54°26' E 011°57'10 9.6
2014-Aug-27 12:33N 54°30' E 012°13'1110.8
2014-Aug-27 11:33N 54°39' E 012°23'1211.5
2014-Aug-27 10:33N 54°45' E 012°39'1111.1
2014-Aug-27 09:33N 54°50' E 012°57'1411.1
2014-Aug-27 08:15N 54°55' E 013°20'810.9
2014-Aug-27 07:33N 54°57' E 013°33'1111.3
2014-Aug-27 06:33N 55°01' E 013°51'1110.6
2014-Aug-27 05:33N 55°06' E 014°07'1211.9
2014-Aug-27 04:33N 55°16' E 014°20'1111.5
2014-Aug-27 03:33N 55°25' E 014°32'1311.3
2014-Aug-27 02:25N 55°32' E 014°51'1411.2
2014-Aug-27 01:10N 55°39' E 015°13'36115.2
2014-Aug-26 01:20N 59°40' E 023°35'1316.7
2014-Aug-26 00:33N 59°44' E 024°00'1616.3
2014-Aug-25 23:33N 59°48' E 024°31'5616.2
2014-Aug-25 20:06N 60°05' E 026°18'916.9
2014-Aug-25 19:33N 60°14' E 026°25'1514.9
2014-Aug-25 18:33N 60°23' E 026°48'4 4.0
2014-Aug-25 17:33N 60°25' E 026°55'0 0.0
2014-Aug-25 16:31N 60°25' E 026°55'0 0.0
2014-Aug-25 15:31N 60°25' E 026°55'0 0.0
2014-Aug-25 14:31N 60°25' E 026°55'0 0.0
2014-Aug-25 13:34N 60°25' E 026°55'0 0.0
2014-Aug-25 12:31N 60°25' E 026°55'0 0.0
2014-Aug-25 11:33N 60°25' E 026°55'0 0.0
2014-Aug-25 10:33N 60°25' E 026°55'0 0.0
2014-Aug-25 09:32N 60°25' E 026°55'0 0.0
2014-Aug-25 08:32N 60°25' E 026°55'0 0.0
2014-Aug-25 07:32N 60°25' E 026°55'0 0.0
2014-Aug-25 06:32N 60°25' E 026°55'0 0.0
2014-Aug-25 05:32N 60°25' E 026°55'0 0.0
2014-Aug-25 04:32N 60°25' E 026°55'0 0.0
2014-Aug-25 03:32N 60°25' E 026°55'0 0.0
2014-Aug-25 02:32N 60°25' E 026°55'0 0.0
2014-Aug-25 01:32N 60°25' E 026°55'0 0.0
2014-Aug-25 00:32N 60°25' E 026°55'0 0.0
2014-Aug-24 23:32N 60°25' E 026°55'0 0.0
2014-Aug-24 22:32N 60°25' E 026°55'0 0.0
2014-Aug-24 21:32N 60°25' E 026°55'0 0.0
2014-Aug-24 20:32N 60°25' E 026°55'0 0.0
2014-Aug-24 19:32N 60°25' E 026°55'0 0.0
2014-Aug-24 18:32N 60°25' E 026°55'0 0.0
2014-Aug-24 17:32N 60°25' E 026°55'0 0.0
2014-Aug-24 16:32N 60°25' E 026°55'0 0.0
2014-Aug-24 15:32N 60°25' E 026°55'0 0.0
2014-Aug-24 14:32N 60°25' E 026°55'0 0.0
2014-Aug-24 13:32N 60°25' E 026°55'0 0.0
2014-Aug-24 12:32N 60°25' E 026°55'0 0.0
2014-Aug-24 11:32N 60°25' E 026°55'0 0.0
2014-Aug-24 10:32N 60°25' E 026°55'0 0.0
2014-Aug-24 09:32N 60°25' E 026°55'0 0.0
2014-Aug-24 08:32N 60°25' E 026°55'0 0.0
2014-Aug-24 07:32N 60°25' E 026°55'0 0.0
2014-Aug-24 06:32N 60°25' E 026°55'0 0.0
2014-Aug-24 05:32N 60°25' E 026°55'0 0.0
2014-Aug-24 04:32N 60°25' E 026°55'0 0.0
2014-Aug-24 03:32N 60°25' E 026°55'0 0.0
2014-Aug-24 02:32N 60°25' E 026°55'0 0.0
2014-Aug-24 01:33N 60°25' E 026°55'0 0.0
2014-Aug-24 00:33N 60°25' E 026°55'0 0.0
2014-Aug-23 23:33N 60°25' E 026°55'0 0.0
2014-Aug-23 22:33N 60°25' E 026°55'  
Track history (hours):
 
Tides and Currents Weather Stations Pressure Air Temp Water Temp Dewpoint Dewpoint Depression Visibility Wind Speed Wind Dir Waves Ship Positions

Suederoog

Last reported at 2014-Sep-02 22:28 UTC. Time now 2014-Sep-03 07:27 UTC.
Position N 59°53' E 030°12'.

Length 161 m; draft 9.8 m.

Type: Ship (hazmat cat A). MMSI: 236300000.

Date/timePositionNaut miles runAvg speedWind from/ knotsBaromVisibWave heightAir tempDewpointWater temp
2014-Sep-02 22:28N 59°53' E 030°12'0 0.0
2014-Sep-02 20:33N 59°53' E 030°12'0 0.0
2014-Sep-02 19:28N 59°53' E 030°12'0 0.0
2014-Sep-02 18:28N 59°53' E 030°12'0 0.0
2014-Sep-02 17:28N 59°53' E 030°12'6 1.5
2014-Sep-02 13:08N 59°55' E 030°00'84 9.7
2014-Sep-02 04:31N 60°01' E 027°13'1010.4
2014-Sep-02 03:33N 59°59' E 026°54'1110.6
2014-Sep-02 02:33N 59°58' E 026°33'5810.9
2014-Sep-01 21:13N 59°45' E 024°41'711.1
2014-Sep-01 20:33N 59°43' E 024°26'1211.2
2014-Sep-01 19:30N 59°40' E 024°04'1010.8
2014-Sep-01 18:33N 59°37' E 023°45'1111.0
2014-Sep-01 17:33N 59°33' E 023°24'20213.5
2014-Sep-01 02:31N 57°08' E 018°56'1718.2
2014-Sep-01 01:34N 56°54' E 018°37'8118.1
2014-Aug-31 21:04N 56°02' E 016°44'918.0
2014-Aug-31 20:34N 55°57' E 016°29'5317.7
2014-Aug-31 17:33N 55°32' E 015°06'1717.5
2014-Aug-31 16:33N 55°24' E 014°38'1818.2
2014-Aug-31 15:34N 55°09' E 014°21'1817.6
2014-Aug-31 14:33N 54°59' E 013°56'3718.2
2014-Aug-31 12:33N 54°48' E 012°55'2117.4
2014-Aug-31 11:20N 54°38' E 012°23'1316.9
2014-Aug-31 10:33N 54°27' E 012°12'9110.1
2014-Aug-31 01:33N 54°15' E 009°37'7 6.7
2014-Aug-31 00:29N 54°10' E 009°27'5 5.2
2014-Aug-30 23:31N 54°08' E 009°20'6 6.2
2014-Aug-30 22:33N 54°02' E 009°18'6 6.0
2014-Aug-30 21:34N 53°56' E 009°13'0 0.0
2014-Aug-30 20:34N 53°57' E 009°13'3 3.3
2014-Aug-30 19:34N 53°54' E 009°10'1 1.3
2014-Aug-30 18:34N 53°53' E 009°11'9 8.9
2014-Aug-30 17:33N 53°48' E 009°23'1313.5
2014-Aug-30 16:33N 53°36' E 009°35'1110.7
2014-Aug-30 15:33N 53°33' E 009°52'3 3.1
2014-Aug-30 14:33N 53°32' E 009°57'0 0.0
2014-Aug-30 13:33N 53°32' E 009°57'0 0.0
2014-Aug-30 12:31N 53°32' E 009°57'0 0.0
2014-Aug-30 11:28N 53°32' E 009°57'0 0.0
2014-Aug-30 10:32N 53°32' E 009°57'0 0.0
2014-Aug-30 09:31N 53°32' E 009°57'0 0.0
2014-Aug-30 08:22N 53°32' E 009°57'0 0.0
2014-Aug-30 07:33N 53°32' E 009°57'0 0.0
2014-Aug-30 06:32N 53°32' E 009°57'0 0.0
2014-Aug-30 05:29N 53°32' E 009°57'0 0.0
2014-Aug-30 04:31N 53°32' E 009°57'0 0.0
2014-Aug-30 03:31N 53°32' E 009°57'0 0.0
2014-Aug-30 02:31N 53°32' E 009°57'0 0.0
2014-Aug-30 01:31N 53°32' E 009°57'0 0.0
2014-Aug-30 00:31N 53°32' E 009°57'0 0.0
2014-Aug-29 23:31N 53°32' E 009°57'0 0.0
2014-Aug-29 22:33N 53°32' E 009°57'0 0.0
2014-Aug-29 21:31N 53°32' E 009°57'0 0.0
2014-Aug-29 20:33N 53°32' E 009°57'0 0.0
2014-Aug-29 19:32N 53°32' E 009°57'0 0.0
2014-Aug-29 18:33N 53°32' E 009°57'0 0.0
2014-Aug-29 17:33N 53°32' E 009°57'0 0.0
2014-Aug-29 16:28N 53°32' E 009°57'0 0.0
2014-Aug-29 15:31N 53°32' E 009°57'0 0.0
2014-Aug-29 14:33N 53°32' E 009°57'0 0.2
2014-Aug-29 13:34N 53°32' E 009°57'1 1.2
2014-Aug-29 12:29N 53°32' E 009°55'0 0.0
2014-Aug-29 11:32N 53°32' E 009°55'0 0.0
2014-Aug-29 10:32N 53°32' E 009°55'0 0.0
2014-Aug-29 09:33N 53°32' E 009°55'0 0.0
2014-Aug-29 08:33N 53°32' E 009°55'0 0.0
2014-Aug-29 07:33N 53°32' E 009°55'0 0.0
2014-Aug-29 06:30N 53°32' E 009°55'0 0.0
2014-Aug-29 05:33N 53°32' E 009°55'0 0.0
2014-Aug-29 04:30N 53°32' E 009°55'0 0.0
2014-Aug-29 03:32N 53°32' E 009°55'0 0.0
2014-Aug-29 02:33N 53°32' E 009°55'0 0.0
2014-Aug-29 01:32N 53°32' E 009°55'0 0.0
2014-Aug-29 00:31N 53°32' E 009°55'0 0.0
2014-Aug-28 23:33N 53°32' E 009°55'0 0.0
2014-Aug-28 22:33N 53°32' E 009°55'0 0.0
2014-Aug-28 21:33N 53°32' E 009°55'0 0.0
2014-Aug-28 20:33N 53°32' E 009°55'0 0.0
2014-Aug-28 19:33N 53°32' E 009°55'0 0.0
2014-Aug-28 18:33N 53°32' E 009°55'0 0.0
2014-Aug-28 17:29N 53°32' E 009°55'0 0.0
2014-Aug-28 16:29N 53°32' E 009°55'1 0.8
2014-Aug-28 15:33N 53°32' E 009°54'8 7.9
2014-Aug-28 14:34N 53°34' E 009°41'1515.0
2014-Aug-28 13:34N 53°45' E 009°24'1312.6
2014-Aug-28 12:33N 53°54' E 009°09'1 0.7
2014-Aug-28 11:33N 53°54' E 009°10'1 0.6
2014-Aug-28 10:33N 53°55' E 009°10'0 0.0
2014-Aug-28 09:33N 53°55' E 009°10'0 0.0
2014-Aug-28 08:33N 53°55' E 009°10'0 0.0
2014-Aug-28 07:34N 53°55' E 009°10'0 0.1
2014-Aug-28 06:33N 53°55' E 009°10'5 5.5
2014-Aug-28 05:33N 53°59' E 009°16'7 6.8
2014-Aug-28 04:33N 54°05' E 009°19'5 4.9
2014-Aug-28 03:33N 54°10' E 009°24'6 5.8
2014-Aug-28 02:33N 54°12' E 009°33'4 3.6
2014-Aug-28 01:31N 54°15' E 009°37'4 4.4
2014-Aug-28 00:33N 54°18' E 009°42'61 6.7
2014-Aug-27 15:23N 54°32' E 011°24'1011.1
2014-Aug-27 14:27N 54°28' E 011°40'1011.2
2014-Aug-27 13:33N 54°26' E 011°57'10 9.6
2014-Aug-27 12:33N 54°30' E 012°13'1110.8
2014-Aug-27 11:33N 54°39' E 012°23'1211.5
2014-Aug-27 10:33N 54°45' E 012°39'1111.1
2014-Aug-27 09:33N 54°50' E 012°57'1411.1
2014-Aug-27 08:15N 54°55' E 013°20'810.9
2014-Aug-27 07:33N 54°57' E 013°33'1111.3
2014-Aug-27 06:33N 55°01' E 013°51'1110.6
2014-Aug-27 05:33N 55°06' E 014°07'1211.9
2014-Aug-27 04:33N 55°16' E 014°20'1111.5
2014-Aug-27 03:33N 55°25' E 014°32'1311.3
2014-Aug-27 02:25N 55°32' E 014°51'1411.2
2014-Aug-27 01:10N 55°39' E 015°13'36115.2
2014-Aug-26 01:20N 59°40' E 023°35'1316.7
2014-Aug-26 00:33N 59°44' E 024°00'1616.3
2014-Aug-25 23:33N 59°48' E 024°31'5616.2
2014-Aug-25 20:06N 60°05' E 026°18'916.9
2014-Aug-25 19:33N 60°14' E 026°25'1514.9
2014-Aug-25 18:33N 60°23' E 026°48'4 4.0
2014-Aug-25 17:33N 60°25' E 026°55'0 0.0
2014-Aug-25 16:31N 60°25' E 026°55'0 0.0
2014-Aug-25 15:31N 60°25' E 026°55'0 0.0
2014-Aug-25 14:31N 60°25' E 026°55'0 0.0
2014-Aug-25 13:34N 60°25' E 026°55'0 0.0
2014-Aug-25 12:31N 60°25' E 026°55'0 0.0
2014-Aug-25 11:33N 60°25' E 026°55'0 0.0
2014-Aug-25 10:33N 60°25' E 026°55'0 0.0
2014-Aug-25 09:32N 60°25' E 026°55'0 0.0
2014-Aug-25 08:32N 60°25' E 026°55'0 0.0
2014-Aug-25 07:32N 60°25' E 026°55'0 0.0
2014-Aug-25 06:32N 60°25' E 026°55'0 0.0
2014-Aug-25 05:32N 60°25' E 026°55'0 0.0
2014-Aug-25 04:32N 60°25' E 026°55'0 0.0
2014-Aug-25 03:32N 60°25' E 026°55'0 0.0
2014-Aug-25 02:32N 60°25' E 026°55'0 0.0
2014-Aug-25 01:32N 60°25' E 026°55'0 0.0
2014-Aug-25 00:32N 60°25' E 026°55'0 0.0
2014-Aug-24 23:32N 60°25' E 026°55'0 0.0
2014-Aug-24 22:32N 60°25' E 026°55'0 0.0
2014-Aug-24 21:32N 60°25' E 026°55'0 0.0
2014-Aug-24 20:32N 60°25' E 026°55'0 0.0
2014-Aug-24 19:32N 60°25' E 026°55'0 0.0
2014-Aug-24 18:32N 60°25' E 026°55'0 0.0
2014-Aug-24 17:32N 60°25' E 026°55'0 0.0
2014-Aug-24 16:32N 60°25' E 026°55'0 0.0
2014-Aug-24 15:32N 60°25' E 026°55'0 0.0
2014-Aug-24 14:32N 60°25' E 026°55'0 0.0
2014-Aug-24 13:32N 60°25' E 026°55'0 0.0
2014-Aug-24 12:32N 60°25' E 026°55'0 0.0
2014-Aug-24 11:32N 60°25' E 026°55'0 0.0
2014-Aug-24 10:32N 60°25' E 026°55'0 0.0
2014-Aug-24 09:32N 60°25' E 026°55'0 0.0
2014-Aug-24 08:32N 60°25' E 026°55'0 0.0
2014-Aug-24 07:32N 60°25' E 026°55'0 0.0
2014-Aug-24 06:32N 60°25' E 026°55'0 0.0
2014-Aug-24 05:32N 60°25' E 026°55'0 0.0
2014-Aug-24 04:32N 60°25' E 026°55'0 0.0
2014-Aug-24 03:32N 60°25' E 026°55'0 0.0
2014-Aug-24 02:32N 60°25' E 026°55'0 0.0
2014-Aug-24 01:33N 60°25' E 026°55'0 0.0
2014-Aug-24 00:33N 60°25' E 026°55'0 0.0
2014-Aug-23 23:33N 60°25' E 026°55'0 0.0
2014-Aug-23 22:33N 60°25' E 026°55'  

Dump ship's entire track history